createdAt,value
2023-04-19T00:00:14.935Z,72.42
2023-04-19T00:02:43.346Z,72.45
2023-04-19T00:05:11.971Z,72.39
2023-04-19T00:07:41.260Z,72.36
2023-04-19T00:10:10.123Z,72.41
2023-04-19T00:12:37.983Z,72.26
2023-04-19T00:15:06.809Z,72.27
2023-04-19T00:17:34.713Z,72.34
2023-04-19T00:20:02.946Z,72.36
2023-04-19T00:22:30.763Z,72.48
2023-04-19T00:25:00.027Z,72.25
2023-04-19T00:27:27.798Z,72.44
2023-04-19T00:29:55.568Z,72.35
2023-04-19T00:32:23.425Z,72.43
2023-04-19T00:34:51.882Z,72.09
2023-04-19T00:37:19.698Z,72.35
2023-04-19T00:39:47.466Z,72.37
2023-04-19T00:42:16.624Z,72.30
2023-04-19T00:44:47.258Z,72.23
2023-04-19T00:47:16.858Z,72.32
2023-04-19T00:49:46.496Z,72.22
2023-04-19T00:52:14.272Z,72.31
2023-04-19T00:54:44.686Z,72.30
2023-04-19T00:57:16.575Z,72.36
2023-04-19T00:59:44.459Z,72.24
2023-04-19T01:02:12.358Z,71.85
2023-04-19T01:04:40.140Z,72.19
2023-04-19T01:07:08.020Z,72.10
2023-04-19T01:09:35.888Z,72.24
2023-04-19T01:12:04.207Z,72.16
2023-04-19T01:14:33.360Z,72.09
2023-04-19T01:17:01.180Z,71.76
2023-04-19T01:19:29.009Z,71.92
2023-04-19T01:21:58.361Z,72.07
2023-04-19T01:24:28.235Z,72.26
2023-04-19T01:26:56.285Z,72.30
2023-04-19T01:29:24.157Z,72.08
2023-04-19T01:31:53.703Z,72.07
2023-04-19T01:34:23.124Z,72.00
2023-04-19T01:36:51.304Z,71.64
2023-04-19T01:39:19.137Z,72.09
2023-04-19T01:41:48.294Z,72.08
2023-04-19T01:44:16.290Z,72.03
2023-04-19T01:46:44.371Z,72.02
2023-04-19T01:49:13.729Z,72.11
2023-04-19T01:51:43.756Z,72.04
2023-04-19T01:54:11.496Z,72.06
2023-04-19T01:56:39.264Z,72.01
2023-04-19T01:59:08.397Z,72.11
2023-04-19T02:01:36.149Z,71.99
2023-04-19T02:04:04.138Z,72.00
2023-04-19T02:06:32.784Z,71.83
2023-04-19T02:09:00.548Z,72.06
2023-04-19T02:11:29.003Z,72.05
2023-04-19T02:13:56.815Z,71.92
2023-04-19T02:16:25.994Z,72.08
2023-04-19T02:18:53.830Z,71.94
2023-04-19T02:21:21.659Z,72.04
2023-04-19T02:23:49.467Z,72.19
2023-04-19T02:26:17.345Z,71.75
2023-04-19T02:28:45.141Z,72.04
2023-04-19T02:31:13.948Z,71.79
2023-04-19T02:33:43.111Z,71.73
2023-04-19T02:36:12.088Z,71.69
2023-04-19T02:38:39.891Z,71.73
2023-04-19T02:41:07.726Z,71.96
2023-04-19T02:43:38.777Z,71.77
2023-04-19T02:46:06.894Z,71.72
2023-04-19T02:48:34.696Z,72.07
2023-04-19T02:51:03.849Z,72.11
2023-04-19T02:53:31.721Z,71.83
2023-04-19T02:55:59.467Z,72.15
2023-04-19T02:58:28.030Z,71.80
2023-04-19T03:01:03.701Z,71.81
2023-04-19T03:03:31.867Z,71.66
2023-04-19T03:05:59.820Z,71.50
2023-04-19T03:08:30.352Z,71.46
2023-04-19T03:10:58.086Z,71.42
2023-04-19T03:13:25.965Z,72.00
2023-04-19T03:15:53.763Z,71.84
2023-04-19T03:18:23.692Z,71.38
2023-04-19T03:20:53.392Z,71.79
2023-04-19T03:23:21.780Z,72.07
2023-04-19T03:25:52.317Z,71.48
2023-04-19T03:28:26.942Z,72.26
2023-04-19T03:31:22.613Z,71.35
2023-04-19T03:33:52.128Z,71.85
2023-04-19T03:36:22.962Z,72.10
2023-04-19T03:38:51.372Z,72.24
2023-04-19T03:41:23.786Z,71.34
2023-04-19T03:44:11.811Z,71.44
2023-04-19T03:46:43.212Z,71.19
2023-04-19T03:49:11.405Z,71.37
2023-04-19T03:51:40.436Z,71.22
2023-04-19T03:54:08.518Z,71.79
2023-04-19T03:56:37.682Z,71.89
2023-04-19T03:59:05.476Z,71.66
2023-04-19T04:01:35.587Z,71.62
2023-04-19T04:04:05.171Z,71.44
2023-04-19T04:06:33.602Z,71.48
2023-04-19T04:09:02.426Z,72.02
2023-04-19T04:11:30.217Z,71.36
2023-04-19T04:14:00.174Z,71.49
2023-04-19T04:16:31.841Z,71.77
2023-04-19T04:18:59.884Z,71.40
2023-04-19T04:21:29.367Z,71.53
2023-04-19T04:24:01.956Z,71.37
2023-04-19T04:26:46.652Z,71.19
2023-04-19T04:29:21.706Z,71.03
2023-04-19T04:31:51.789Z,71.48
2023-04-19T04:34:24.571Z,71.30
2023-04-19T04:36:58.516Z,71.04
2023-04-19T04:39:26.360Z,71.58
2023-04-19T04:41:54.187Z,71.44
2023-04-19T04:44:23.487Z,71.16
2023-04-19T04:46:51.708Z,70.80
2023-04-19T04:49:25.457Z,71.48
2023-04-19T04:51:53.305Z,71.48
2023-04-19T04:54:22.881Z,71.14
2023-04-19T04:56:51.074Z,70.83
2023-04-19T04:59:19.006Z,71.27
2023-04-19T05:01:51.170Z,71.40
2023-04-19T05:04:20.115Z,71.31
2023-04-19T05:06:47.902Z,71.15
2023-04-19T05:09:21.996Z,70.71
2023-04-19T05:11:51.197Z,70.93
2023-04-19T05:14:18.998Z,71.43
2023-04-19T05:16:46.927Z,71.23
2023-04-19T05:19:16.213Z,71.09
2023-04-19T05:21:49.855Z,71.19
2023-04-19T05:24:18.491Z,70.90
2023-04-19T05:26:47.468Z,71.00
2023-04-19T05:29:15.827Z,70.73
2023-04-19T05:31:52.936Z,70.98
2023-04-19T05:34:28.964Z,71.07
2023-04-19T05:36:58.249Z,70.86
2023-04-19T05:39:26.729Z,71.16
2023-04-19T05:41:54.478Z,71.06
2023-04-19T05:44:22.285Z,70.85
2023-04-19T05:46:50.212Z,70.68
2023-04-19T05:49:33.541Z,71.02
2023-04-19T05:52:15.765Z,70.52
2023-04-19T05:54:50.329Z,71.16
2023-04-19T05:57:18.083Z,71.03
2023-04-19T05:59:45.977Z,70.51
2023-04-19T06:02:16.949Z,71.21
2023-04-19T06:04:46.917Z,71.26
2023-04-19T06:07:27.281Z,70.79
2023-04-19T06:09:58.494Z,70.37
2023-04-19T06:12:26.572Z,70.53
2023-04-19T06:14:54.578Z,70.40
2023-04-19T06:17:24.463Z,71.31
2023-04-19T06:19:53.860Z,70.39
2023-04-19T06:22:22.115Z,71.09
2023-04-19T06:24:50.176Z,71.31
2023-04-19T06:27:18.160Z,70.46
2023-04-19T06:29:45.898Z,70.93
2023-04-19T06:32:13.742Z,70.39
2023-04-19T06:34:41.502Z,71.29
2023-04-19T06:37:10.630Z,70.61
2023-04-19T06:39:38.361Z,70.91
2023-04-19T06:42:06.349Z,71.04
2023-04-19T06:44:34.647Z,70.93
2023-04-19T06:47:02.627Z,70.82
2023-04-19T06:49:30.440Z,71.00
2023-04-19T06:51:59.315Z,71.24
2023-04-19T06:54:28.547Z,71.00
2023-04-19T06:56:57.928Z,70.53
2023-04-19T06:59:28.184Z,70.86
2023-04-19T07:01:57.355Z,70.96
2023-04-19T07:04:26.270Z,69.86
2023-04-19T07:06:54.256Z,70.51
2023-04-19T07:09:22.052Z,71.14
2023-04-19T07:11:51.328Z,70.53
2023-04-19T07:14:19.509Z,70.27
2023-04-19T07:16:49.011Z,70.59
2023-04-19T07:19:19.201Z,70.31
2023-04-19T07:21:46.998Z,71.03
2023-04-19T07:24:15.169Z,70.60
2023-04-19T07:26:43.245Z,70.75
2023-04-19T07:29:15.427Z,70.64
2023-04-19T07:31:43.205Z,70.20
2023-04-19T07:34:11.012Z,70.55
2023-04-19T07:36:39.093Z,70.11
2023-04-19T07:39:06.862Z,70.72
2023-04-19T07:41:36.131Z,70.17
2023-04-19T07:44:04.330Z,70.96
2023-04-19T07:46:33.453Z,71.18
2023-04-19T07:49:01.286Z,70.12
2023-04-19T07:51:29.085Z,70.16
2023-04-19T07:53:56.826Z,70.23
2023-04-19T07:56:26.382Z,70.25
2023-04-19T07:59:06.759Z,70.90
2023-04-19T08:01:37.439Z,70.25
2023-04-19T08:04:05.567Z,70.56
2023-04-19T08:06:33.587Z,70.24
2023-04-19T08:09:01.448Z,70.27
2023-04-19T08:11:29.199Z,70.18
2023-04-19T08:14:26.131Z,70.48
2023-04-19T08:19:16.706Z,70.14
2023-04-19T08:21:44.491Z,70.18
2023-04-19T08:24:12.239Z,69.71
2023-04-19T08:26:40.162Z,70.09
2023-04-19T08:29:08.105Z,70.23
2023-04-19T08:31:35.885Z,69.89
2023-04-19T08:34:05.028Z,70.09
2023-04-19T08:36:41.180Z,70.03
2023-04-19T08:39:28.874Z,70.10
2023-04-19T08:42:06.934Z,70.12
2023-04-19T08:44:45.318Z,70.11
2023-04-19T08:47:30.297Z,69.73
2023-04-19T08:50:13.838Z,69.93
2023-04-19T08:52:56.119Z,69.92
2023-04-19T08:55:28.743Z,69.71
2023-04-19T08:57:57.989Z,70.10
2023-04-19T09:00:26.062Z,70.02
2023-04-19T09:02:56.121Z,69.60
2023-04-19T09:05:25.713Z,69.88
2023-04-19T09:07:53.808Z,69.63
2023-04-19T09:10:22.517Z,69.54
2023-04-19T09:13:03.923Z,69.43
2023-04-19T09:15:39.763Z,69.52
2023-04-19T09:18:09.797Z,69.38
2023-04-19T09:20:40.564Z,69.66
2023-04-19T09:23:12.605Z,69.27
2023-04-19T09:26:05.824Z,69.26
2023-04-19T09:28:29.193Z,69.53
2023-04-19T09:31:05.656Z,68.97
2023-04-19T09:33:39.867Z,68.81
2023-04-19T09:36:10.226Z,68.99
2023-04-19T09:38:48.936Z,69.21
2023-04-19T09:41:18.328Z,68.97
2023-04-19T09:44:05.642Z,68.62
2023-04-19T09:46:36.055Z,68.80
2023-04-19T09:49:27.879Z,68.53
2023-04-19T09:52:14.547Z,68.46
2023-04-19T09:54:42.945Z,68.40
2023-04-19T09:57:11.048Z,68.41
2023-04-19T09:59:38.857Z,68.55
2023-04-19T10:02:07.549Z,68.26
2023-04-19T10:04:56.946Z,68.01
2023-04-19T10:07:30.546Z,68.20
2023-04-19T10:10:11.863Z,68.25
2023-04-19T10:13:07.579Z,68.18
2023-04-19T10:15:47.184Z,67.97
2023-04-19T10:18:19.519Z,67.70
2023-04-19T10:20:52.983Z,67.85
2023-04-19T10:23:23.494Z,67.70
2023-04-19T10:25:56.860Z,67.46
2023-04-19T10:28:24.823Z,67.68
2023-04-19T10:30:58.301Z,67.52
2023-04-19T10:33:28.031Z,67.58
2023-04-19T10:35:57.678Z,67.50
2023-04-19T10:38:41.525Z,67.11
2023-04-19T10:41:16.995Z,67.23
2023-04-19T10:43:47.933Z,67.02
2023-04-19T10:46:36.911Z,67.21
2023-04-19T10:49:07.741Z,67.19
2023-04-19T10:51:37.300Z,67.02
2023-04-19T10:54:07.175Z,66.75
2023-04-19T10:57:05.261Z,66.71
2023-04-19T10:59:34.464Z,66.63
2023-04-19T11:02:03.555Z,66.74
2023-04-19T11:05:00.597Z,66.64
2023-04-19T11:07:28.526Z,66.66
2023-04-19T11:09:57.636Z,66.68
2023-04-19T11:12:25.383Z,66.50
2023-04-19T11:14:54.811Z,66.41
2023-04-19T11:17:25.930Z,66.29
2023-04-19T11:19:58.948Z,66.25
2023-04-19T11:22:31.163Z,66.21
2023-04-19T11:25:06.688Z,65.86
2023-04-19T11:27:35.341Z,66.07
2023-04-19T11:30:05.400Z,65.94
2023-04-19T11:32:33.513Z,65.93
2023-04-19T11:35:06.758Z,65.65
2023-04-19T11:37:36.364Z,65.85
2023-04-19T11:40:07.706Z,65.76
2023-04-19T11:42:35.950Z,65.65
2023-04-19T11:45:05.184Z,65.49
2023-04-19T11:47:35.378Z,65.52
2023-04-19T11:50:34.698Z,65.37
2023-04-19T11:53:12.436Z,65.29
2023-04-19T11:55:43.605Z,65.19
2023-04-19T11:58:24.366Z,64.98
2023-04-19T12:00:52.585Z,65.00
2023-04-19T12:03:25.694Z,64.91
2023-04-19T12:05:56.074Z,65.22
2023-04-19T12:08:35.389Z,64.68
2023-04-19T12:11:05.766Z,64.60
2023-04-19T12:13:34.190Z,64.73
2023-04-19T12:16:02.447Z,64.56
2023-04-19T12:18:44.451Z,64.59
2023-04-19T12:21:12.861Z,64.34
2023-04-19T12:23:40.604Z,64.32
2023-04-19T12:26:09.703Z,64.13
2023-04-19T12:28:37.548Z,64.16
2023-04-19T12:31:06.045Z,64.15
2023-04-19T12:33:33.801Z,63.96
2023-04-19T12:36:01.609Z,63.88
2023-04-19T12:38:29.418Z,63.86
2023-04-19T12:40:57.213Z,63.79
2023-04-19T12:43:26.448Z,63.69
2023-04-19T12:45:54.299Z,63.71
2023-04-19T12:48:22.149Z,63.62
2023-04-19T12:50:49.918Z,63.52
2023-04-19T12:53:17.740Z,63.51
2023-04-19T12:55:47.633Z,63.64
2023-04-19T12:58:15.769Z,63.29
2023-04-19T13:00:45.451Z,63.27
2023-04-19T13:03:13.657Z,63.24
2023-04-19T13:05:41.536Z,62.95
2023-04-19T13:08:09.344Z,63.01
2023-04-19T13:10:37.135Z,62.80
2023-04-19T13:13:05.031Z,62.84
2023-04-19T13:15:32.796Z,62.66
2023-04-19T13:18:02.019Z,62.62
2023-04-19T13:20:29.923Z,62.64
2023-04-19T13:22:57.718Z,62.45
2023-04-19T13:25:25.545Z,62.40
2023-04-19T13:27:53.342Z,62.43
2023-04-19T13:30:21.162Z,62.27
2023-04-19T13:32:49.023Z,62.21
2023-04-19T13:35:18.211Z,62.16
2023-04-19T13:37:47.480Z,62.10
2023-04-19T13:40:19.352Z,62.00
2023-04-19T13:42:47.682Z,61.85
2023-04-19T13:45:15.550Z,61.90
2023-04-19T13:47:43.456Z,61.86
2023-04-19T13:50:12.843Z,61.82
2023-04-19T13:52:42.056Z,61.65
2023-04-19T13:55:10.498Z,61.59
2023-04-19T13:57:38.231Z,61.56
2023-04-19T14:00:08.338Z,61.51
2023-04-19T14:02:36.592Z,61.54
2023-04-19T14:05:05.057Z,61.43
2023-04-19T14:07:33.509Z,61.33
2023-04-19T14:10:02.874Z,61.40
2023-04-19T14:12:30.595Z,61.16
2023-04-19T14:14:58.385Z,61.12
2023-04-19T14:17:26.371Z,61.12
2023-04-19T14:19:54.328Z,60.98
2023-04-19T14:22:22.238Z,61.00
2023-04-19T14:24:49.961Z,60.95
2023-04-19T14:27:19.239Z,60.74
2023-04-19T14:29:47.063Z,60.78
2023-04-19T14:34:46.208Z,60.63
2023-04-19T14:37:13.983Z,60.71
2023-04-19T14:39:41.740Z,60.51
2023-04-19T14:42:09.517Z,60.54
2023-04-19T14:44:38.730Z,60.39
2023-04-19T14:47:06.563Z,60.29
2023-04-19T14:49:34.414Z,60.28
2023-04-19T14:52:03.735Z,60.21
2023-04-19T14:54:31.659Z,59.77
2023-04-19T14:56:59.471Z,59.98
2023-04-19T14:59:29.773Z,59.94
2023-04-19T15:01:59.175Z,59.88
2023-04-19T15:04:27.129Z,59.76
2023-04-19T15:06:54.950Z,59.66
2023-04-19T15:09:22.750Z,59.74
2023-04-19T15:11:50.499Z,59.60
2023-04-19T15:14:19.709Z,59.61
2023-04-19T15:16:47.537Z,59.50
2023-04-19T15:19:16.841Z,59.43
2023-04-19T15:21:44.813Z,59.30
2023-04-19T15:24:12.566Z,59.25
2023-04-19T15:26:42.110Z,59.37
2023-04-19T15:29:11.408Z,59.18
2023-04-19T15:31:39.308Z,59.17
2023-04-19T15:34:07.330Z,59.00
2023-04-19T15:36:36.498Z,59.06
2023-04-19T15:39:04.389Z,59.06
2023-04-19T15:41:32.140Z,58.90
2023-04-19T15:43:59.935Z,58.82
2023-04-19T15:46:27.734Z,58.65
2023-04-19T15:48:55.533Z,58.63
2023-04-19T15:51:23.345Z,58.80
2023-04-19T15:53:52.420Z,58.54
2023-04-19T15:56:20.199Z,58.65
2023-04-19T15:58:47.976Z,58.53
2023-04-19T16:01:17.044Z,58.51
2023-04-19T16:03:46.916Z,58.52
2023-04-19T16:06:14.905Z,58.24
2023-04-19T16:08:42.658Z,58.30
2023-04-19T16:11:11.770Z,58.29
2023-04-19T16:13:39.592Z,58.24
2023-04-19T16:16:08.042Z,58.23
2023-04-19T16:18:35.898Z,57.89
2023-04-19T16:21:04.470Z,58.18
2023-04-19T16:23:32.213Z,58.21
2023-04-19T16:25:59.993Z,57.75
2023-04-19T16:28:29.210Z,57.97
2023-04-19T16:30:57.028Z,57.81
2023-04-19T16:33:24.828Z,57.91
2023-04-19T16:35:52.608Z,57.84
2023-04-19T16:38:20.388Z,57.46
2023-04-19T16:40:48.630Z,57.74
2023-04-19T16:43:16.468Z,57.55
2023-04-19T16:45:45.651Z,57.27
2023-04-19T16:48:13.727Z,57.60
2023-04-19T16:50:41.547Z,57.65
2023-04-19T16:53:09.309Z,57.59
2023-04-19T16:55:37.723Z,57.47
2023-04-19T16:58:05.556Z,57.15
2023-04-19T17:00:33.809Z,57.52
2023-04-19T17:03:03.135Z,57.15
2023-04-19T17:05:31.013Z,57.42
2023-04-19T17:07:58.795Z,57.10
2023-04-19T17:10:27.677Z,57.36
2023-04-19T17:12:56.357Z,57.14
2023-04-19T17:15:24.357Z,57.29
2023-04-19T17:17:52.186Z,57.03
2023-04-19T17:20:21.453Z,56.83
2023-04-19T17:22:49.197Z,57.24
2023-04-19T17:25:16.937Z,56.91
2023-04-19T17:27:44.714Z,56.83
2023-04-19T17:30:13.251Z,56.88
2023-04-19T17:32:41.691Z,56.69
2023-04-19T17:35:10.386Z,56.80
2023-04-19T17:37:39.481Z,56.90
2023-04-19T17:40:09.078Z,56.60
2023-04-19T17:42:36.901Z,56.73
2023-04-19T17:45:06.486Z,56.40
2023-04-19T17:47:34.375Z,56.54
2023-04-19T17:50:07.372Z,56.44
2023-04-19T17:52:35.277Z,56.30
2023-04-19T17:55:05.583Z,56.73
2023-04-19T17:57:34.054Z,56.07
2023-04-19T18:00:06.176Z,56.29
2023-04-19T18:02:37.075Z,56.33
2023-04-19T18:05:05.575Z,56.10
2023-04-19T18:07:33.396Z,56.01
2023-04-19T18:10:01.208Z,56.06
2023-04-19T18:12:30.370Z,56.04
2023-04-19T18:14:58.158Z,56.03
2023-04-19T18:17:26.120Z,56.19
2023-04-19T18:19:53.950Z,56.09
2023-04-19T18:22:21.818Z,55.87
2023-04-19T18:24:51.176Z,56.33
2023-04-19T18:27:21.748Z,55.97
2023-04-19T18:29:52.916Z,55.76
2023-04-19T18:32:21.788Z,56.20
2023-04-19T18:34:49.751Z,56.07
2023-04-19T18:37:18.432Z,55.71
2023-04-19T18:39:48.119Z,55.77
2023-04-19T18:42:15.879Z,55.96
2023-04-19T18:44:53.656Z,55.88
2023-04-19T18:47:23.893Z,55.67
2023-04-19T18:50:02.807Z,55.67
2023-04-19T18:52:31.101Z,55.72
2023-04-19T18:54:58.892Z,55.42
2023-04-19T18:57:27.688Z,55.51
2023-04-19T18:59:56.744Z,55.55
2023-04-19T19:02:27.424Z,55.55
2023-04-19T19:05:00.993Z,55.73
2023-04-19T19:10:02.492Z,55.32
2023-04-19T19:12:33.574Z,55.58
2023-04-19T19:15:01.344Z,55.36
2023-04-19T19:17:30.648Z,55.29
2023-04-19T19:19:58.441Z,55.51
2023-04-19T19:22:28.785Z,55.13
2023-04-19T19:24:57.053Z,55.29
2023-04-19T19:27:25.184Z,55.38
2023-04-19T19:29:53.033Z,55.22
2023-04-19T19:32:20.838Z,55.15
2023-04-19T19:34:56.349Z,55.05
2023-04-19T19:37:28.650Z,55.03
2023-04-19T19:39:56.873Z,55.06
2023-04-19T19:42:25.647Z,55.12
2023-04-19T19:44:54.831Z,55.03
2023-04-19T19:47:22.762Z,55.24
2023-04-19T19:52:22.961Z,55.01
2023-04-19T19:54:50.831Z,54.95
2023-04-19T19:58:14.105Z,54.81
2023-04-19T20:00:28.042Z,55.15
2023-04-19T20:02:59.483Z,54.84
2023-04-19T20:05:29.231Z,55.09
2023-04-19T20:08:08.118Z,54.69
2023-04-19T20:10:36.465Z,54.82
2023-04-19T20:13:06.132Z,54.90
2023-04-19T20:15:34.353Z,54.72
2023-04-19T20:18:02.235Z,54.62
2023-04-19T20:20:31.510Z,54.67
2023-04-19T20:22:59.265Z,54.60
2023-04-19T20:25:27.084Z,54.77
2023-04-19T20:27:55.196Z,54.52
2023-04-19T20:30:23.136Z,54.61
2023-04-19T20:32:51.047Z,54.13
2023-04-19T20:35:18.938Z,54.87
2023-04-19T20:37:48.392Z,54.60
2023-04-19T20:40:16.634Z,54.28
2023-04-19T20:42:44.940Z,54.44
2023-04-19T20:45:14.205Z,54.63
2023-04-19T20:47:42.797Z,54.15
2023-04-19T20:50:11.598Z,54.53
2023-04-19T20:52:39.468Z,54.25
2023-04-19T20:55:09.848Z,54.62
2023-04-19T20:57:37.656Z,54.95
2023-04-19T21:00:08.097Z,54.31
2023-04-19T21:02:36.123Z,54.27
2023-04-19T21:05:04.141Z,54.46
2023-04-19T21:07:31.907Z,54.41
2023-04-19T21:09:59.711Z,54.12
2023-04-19T21:12:29.230Z,54.63
2023-04-19T21:14:57.092Z,54.72
2023-04-19T21:17:25.010Z,53.84
2023-04-19T21:19:52.797Z,54.19
2023-04-19T21:22:20.554Z,54.61
2023-04-19T21:24:48.308Z,53.74
2023-04-19T21:27:16.178Z,54.95
2023-04-19T21:29:45.408Z,53.78
2023-04-19T21:32:13.259Z,53.76
2023-04-19T21:34:41.237Z,53.98
2023-04-19T21:37:09.026Z,54.62
2023-04-19T21:39:36.790Z,54.29
2023-04-19T21:42:04.673Z,54.14
2023-04-19T21:44:32.544Z,54.20
2023-04-19T21:47:02.177Z,54.42
2023-04-19T21:49:30.028Z,53.96
2023-04-19T21:51:58.105Z,54.51
2023-04-19T21:54:33.374Z,54.47
2023-04-19T21:57:02.856Z,54.17
2023-04-19T21:59:31.385Z,53.92
2023-04-19T22:02:01.192Z,54.13
2023-04-19T22:06:36.389Z,54.13
2023-04-19T22:09:05.621Z,54.80
2023-04-19T22:11:34.012Z,54.86
2023-04-19T22:14:02.401Z,54.82
2023-04-19T22:16:32.794Z,54.34
2023-04-19T22:19:01.295Z,54.97
2023-04-19T22:21:30.808Z,54.89
2023-04-19T22:23:59.909Z,54.76
2023-04-19T22:26:27.961Z,54.14
2023-04-19T22:28:55.813Z,54.89
2023-04-19T22:31:23.652Z,54.75
2023-04-19T22:33:51.554Z,54.33
2023-04-19T22:36:19.329Z,54.91
2023-04-19T22:38:47.177Z,54.63
2023-04-19T22:41:16.682Z,54.95
2023-04-19T22:43:44.514Z,55.07
2023-04-19T22:46:13.045Z,55.28
2023-04-19T22:48:40.859Z,54.92
2023-04-19T22:51:08.698Z,54.53
2023-04-19T22:53:37.853Z,54.25
2023-04-19T22:56:06.265Z,54.92
2023-04-19T22:58:35.414Z,55.06
